Time;durP1;ratioP1;P1;durP2;ratioP2;P2;SDS_P1;SDS_P2;PMS_P1;PMS_P2;Temp;Humidity;BMP_temperature;BMP_pressure;BME280_temperature;BME280_humidity;BME280_pressure;Samples;Min_cycle;Max_cycle;Signal;HPM_P1;HPM_P2
2021/09/08 04:00:42;;;;;;;11.40;10.27;;;12.90;99.90;;;;;;6114554;23;20872;-70
2021/09/08 04:03:10;;;;;;;12.82;11.48;;;12.80;99.90;;;;;;6153656;23;20167;-70
2021/09/08 04:05:37;;;;;;;14.20;11.25;;;12.80;99.90;;;;;;6153483;23;20187;-68
2021/09/08 04:08:04;;;;;;;12.53;11.23;;;12.80;99.90;;;;;;6153697;23;20321;-68
2021/09/08 04:10:30;;;;;;;14.00;11.55;;;12.80;99.90;;;;;;6153560;23;20454;-68
2021/09/08 04:12:57;;;;;;;16.15;11.90;;;12.80;99.90;;;;;;6153986;23;20629;-69
2021/09/08 04:15:23;;;;;;;13.10;11.65;;;12.80;99.90;;;;;;6154276;23;20222;-68
2021/09/08 04:17:51;;;;;;;14.00;11.40;;;12.80;99.90;;;;;;6154820;23;20187;-68
2021/09/08 04:20:18;;;;;;;14.77;10.90;;;12.80;99.90;;;;;;6155159;23;20423;-68
2021/09/08 04:22:45;;;;;;;12.27;10.97;;;12.80;99.90;;;;;;6156072;23;20249;-68
2021/09/08 04:25:12;;;;;;;14.65;11.75;;;12.80;99.90;;;;;;6155612;23;20916;-68
2021/09/08 04:27:38;;;;;;;13.85;11.75;;;12.80;99.90;;;;;;6155235;23;20723;-68
2021/09/08 04:30:06;;;;;;;11.43;10.52;;;12.70;99.90;;;;;;6156008;23;20222;-68
2021/09/08 04:32:33;;;;;;;13.77;12.38;;;12.70;99.90;;;;;;6155632;23;20179;-70
2021/09/08 04:35:01;;;;;;;15.30;11.93;;;12.70;99.90;;;;;;6155335;23;20214;-70
2021/09/08 04:37:27;;;;;;;14.50;13.07;;;12.70;99.90;;;;;;6155557;23;20928;-70
2021/09/08 04:39:54;;;;;;;13.93;12.52;;;12.70;99.90;;;;;;6155529;23;20250;-69
2021/09/08 04:42:21;;;;;;;14.20;12.70;;;12.70;99.90;;;;;;6155758;23;20199;-70
2021/09/08 04:44:47;;;;;;;13.63;12.20;;;12.70;99.90;;;;;;6155702;23;20762;-70
2021/09/08 04:47:14;;;;;;;15.82;13.50;;;12.70;99.90;;;;;;6155786;23;20282;-70
2021/09/08 04:49:41;;;;;;;15.48;13.85;;;12.70;99.90;;;;;;6154206;23;20203;-70
2021/09/08 04:52:09;;;;;;;17.55;12.80;;;12.80;99.90;;;;;;6156476;23;20327;-70
2021/09/08 04:54:35;;;;;;;13.93;11.38;;;12.80;99.90;;;;;;6156282;23;20455;-70
2021/09/08 04:57:02;;;;;;;15.88;11.55;;;12.70;99.90;;;;;;6157140;23;20688;-70
2021/09/08 04:59:29;;;;;;;19.47;12.80;;;12.70;99.90;;;;;;6155357;23;20267;-69
2021/09/08 05:01:55;;;;;;;16.37;12.47;;;12.80;99.90;;;;;;6155531;23;20454;-70
2021/09/08 05:04:23;;;;;;;15.50;13.48;;;12.80;99.90;;;;;;6155014;23;20431;-69
2021/09/08 05:06:50;;;;;;;14.53;13.03;;;12.80;99.90;;;;;;6155513;23;20183;-69
2021/09/08 05:09:18;;;;;;;14.93;13.43;;;12.80;99.90;;;;;;6155913;23;20450;-70
2021/09/08 05:11:45;;;;;;;16.50;13.60;;;12.80;99.90;;;;;;6155587;23;20235;-70
2021/09/08 05:14:12;;;;;;;14.63;13.05;;;12.90;99.90;;;;;;6155683;23;20423;-70
2021/09/08 05:16:38;;;;;;;14.67;13.07;;;12.90;99.90;;;;;;6155128;23;20191;-70
2021/09/08 05:19:05;;;;;;;15.00;13.17;;;12.90;99.90;;;;;;6155691;23;20492;-69
2021/09/08 05:21:32;;;;;;;16.03;13.20;;;12.90;99.90;;;;;;6155538;23;20493;-70
2021/09/08 05:23:59;;;;;;;16.93;12.13;;;13.00;99.90;;;;;;6156112;23;20427;-70
2021/09/08 05:26:26;;;;;;;13.27;11.93;;;13.00;99.90;;;;;;6156735;23;20754;-70
2021/09/08 05:28:53;;;;;;;16.70;12.83;;;13.00;99.90;;;;;;6155883;23;20909;-70
2021/09/08 05:31:20;;;;;;;13.27;11.93;;;13.10;99.90;;;;;;6161018;23;20447;-69
2021/09/08 05:33:46;;;;;;;14.73;12.93;;;13.10;99.90;;;;;;6154984;23;20423;-69
2021/09/08 05:36:15;;;;;;;15.47;13.87;;;13.10;99.90;;;;;;6154607;23;20738;-69
2021/09/08 05:38:41;;;;;;;13.80;12.30;;;13.20;99.90;;;;;;6155367;23;20426;-67
2021/09/08 05:41:10;;;;;;;14.47;12.97;;;13.20;99.90;;;;;;6155391;23;20446;-68
2021/09/08 05:43:38;;;;;;;14.40;12.93;;;13.30;99.90;;;;;;6155376;23;20423;-70
2021/09/08 05:46:05;;;;;;;15.70;12.60;;;13.30;99.90;;;;;;6153297;23;20426;-68
2021/09/08 05:48:33;;;;;;;13.93;12.57;;;13.40;99.90;;;;;;6153907;23;20422;-69
2021/09/08 05:51:00;;;;;;;13.90;12.50;;;13.40;99.90;;;;;;6154225;23;20814;-69
2021/09/08 05:53:26;;;;;;;14.80;12.90;;;13.50;99.90;;;;;;6155257;23;20545;-70
2021/09/08 05:55:55;;;;;;;16.13;14.70;;;13.60;99.90;;;;;;6154789;23;20481;-70
2021/09/08 05:58:21;;;;;;;14.87;13.40;;;13.60;99.90;;;;;;6155645;23;20804;-70
2021/09/08 06:00:49;;;;;;;15.47;12.90;;;13.70;99.90;;;;;;6155103;23;20544;-70
2021/09/08 06:03:16;;;;;;;15.60;14.00;;;13.80;99.90;;;;;;6154082;23;20500;-70
2021/09/08 06:05:43;;;;;;;15.57;14.00;;;13.80;99.90;;;;;;6154036;23;20423;-69
2021/09/08 06:08:09;;;;;;;15.30;13.03;;;13.90;99.90;;;;;;6155587;23;20481;-69
2021/09/08 06:10:36;;;;;;;14.97;13.43;;;14.00;99.90;;;;;;6154686;23;20455;-68
2021/09/08 06:13:03;;;;;;;14.27;12.77;;;14.10;99.90;;;;;;6153101;23;20414;-68
2021/09/08 06:15:31;;;;;;;14.37;12.87;;;14.10;99.90;;;;;;6154501;23;20806;-68
2021/09/08 06:18:02;;;;;;;13.63;12.20;;;14.20;99.90;;;;;;6154426;23;20430;-68
2021/09/08 06:20:29;;;;;;;14.40;12.60;;;14.30;99.90;;;;;;6154296;23;20995;-69
2021/09/08 06:22:55;;;;;;;13.07;11.80;;;14.40;99.90;;;;;;6154584;23;20429;-69
2021/09/08 06:25:22;;;;;;;14.00;12.60;;;14.40;99.90;;;;;;6154161;23;20991;-69
2021/09/08 06:27:49;;;;;;;12.47;11.33;;;14.50;99.90;;;;;;6154874;23;20423;-69
2021/09/08 06:30:16;;;;;;;13.00;11.53;;;14.60;99.90;;;;;;6154954;23;20505;-69
2021/09/08 06:32:43;;;;;;;14.37;12.43;;;14.60;99.90;;;;;;6154397;23;20481;-68
2021/09/08 06:35:11;;;;;;;13.40;12.10;;;14.70;99.90;;;;;;6154695;23;20477;-69
2021/09/08 06:37:38;;;;;;;15.37;13.00;;;14.70;99.90;;;;;;6154129;23;20530;-68
2021/09/08 06:40:06;;;;;;;15.43;12.63;;;14.80;99.90;;;;;;6154209;23;20423;-68
2021/09/08 06:42:32;;;;;;;14.37;12.80;;;14.80;99.90;;;;;;6154163;23;20427;-69
2021/09/08 06:44:59;;;;;;;13.20;11.90;;;14.90;99.90;;;;;;6154327;23;20488;-68
2021/09/08 06:47:26;;;;;;;13.57;12.30;;;14.90;99.90;;;;;;6154587;23;20496;-69
2021/09/08 06:49:53;;;;;;;13.93;12.53;;;15.00;99.90;;;;;;6153852;23;20792;-69
2021/09/08 06:52:21;;;;;;;15.33;12.80;;;15.10;99.90;;;;;;6154325;23;20497;-68
2021/09/08 06:54:48;;;;;;;14.13;12.37;;;15.20;99.90;;;;;;6154569;23;20431;-68
2021/09/08 06:57:16;;;;;;;13.87;12.43;;;15.30;99.90;;;;;;6155009;23;20423;-69
2021/09/08 06:59:43;;;;;;;13.83;12.43;;;15.30;99.90;;;;;;6154944;23;20423;-68
2021/09/08 07:02:10;;;;;;;15.63;12.27;;;15.30;99.90;;;;;;6154148;23;20470;-68
2021/09/08 07:04:36;;;;;;;14.10;12.53;;;15.40;99.90;;;;;;6153686;23;20422;-68
2021/09/08 07:07:03;;;;;;;12.77;11.57;;;15.50;99.90;;;;;;6155015;23;20535;-69
2021/09/08 07:09:32;;;;;;;13.63;12.20;;;15.60;99.90;;;;;;6154415;23;20423;-68
2021/09/08 07:11:59;;;;;;;13.93;12.60;;;15.70;99.90;;;;;;6154263;23;20458;-68
2021/09/08 07:14:26;;;;;;;13.37;12.07;;;15.70;99.90;;;;;;6154023;23;20423;-68
2021/09/08 07:16:52;;;;;;;12.47;11.27;;;15.80;99.90;;;;;;6154509;23;20407;-68
2021/09/08 07:19:19;;;;;;;15.40;13.00;;;15.90;99.90;;;;;;6153728;23;20426;-68
2021/09/08 07:21:46;;;;;;;14.30;12.80;;;16.00;99.90;;;;;;6153440;23;20736;-67
2021/09/08 07:24:12;;;;;;;13.17;11.90;;;16.20;99.90;;;;;;6153526;23;20881;-68
2021/09/08 07:26:40;;;;;;;14.27;12.63;;;16.20;99.90;;;;;;6153947;23;20423;-68
2021/09/08 07:29:07;;;;;;;13.10;11.97;;;16.30;99.90;;;;;;6153773;23;20751;-68
2021/09/08 07:31:34;;;;;;;13.97;12.40;;;16.40;99.90;;;;;;6153508;23;20485;-68
2021/09/08 07:34:01;;;;;;;13.70;12.40;;;16.40;99.90;;;;;;6153935;23;20535;-67
2021/09/08 07:36:28;;;;;;;14.67;13.13;;;16.40;99.90;;;;;;6153777;23;20423;-67
2021/09/08 07:38:54;;;;;;;17.13;15.47;;;16.50;99.90;;;;;;6154298;23;20438;-68
2021/09/08 07:41:22;;;;;;;13.10;11.77;;;16.60;99.90;;;;;;6154171;23;20508;-67
2021/09/08 07:43:50;;;;;;;15.60;14.07;;;16.70;99.90;;;;;;6154226;23;20967;-67
2021/09/08 07:46:17;;;;;;;14.83;13.20;;;16.80;99.90;;;;;;6154640;23;20429;-67
2021/09/08 07:48:44;;;;;;;14.57;13.10;;;17.00;99.90;;;;;;6153994;23;20477;-69
2021/09/08 07:51:10;;;;;;;15.70;14.27;;;17.10;99.90;;;;;;6153515;23;20447;-70
2021/09/08 07:53:37;;;;;;;15.73;13.17;;;17.20;99.90;;;;;;6154194;23;20407;-68
2021/09/08 07:56:04;;;;;;;13.40;12.20;;;17.30;99.90;;;;;;6154729;23;20774;-70
2021/09/08 07:58:31;;;;;;;14.77;12.93;;;17.40;99.90;;;;;;6154660;23;20790;-69
2021/09/08 08:00:59;;;;;;;13.37;12.17;;;17.50;99.90;;;;;;6153999;23;20501;-68
2021/09/08 08:03:26;;;;;;;13.57;12.30;;;17.60;99.90;;;;;;6153536;23;20427;-68
2021/09/08 08:05:53;;;;;;;13.97;12.67;;;17.70;99.90;;;;;;6153769;23;20411;-68
2021/09/08 08:08:19;;;;;;;14.00;12.67;;;17.80;99.90;;;;;;6154808;23;20473;-69
2021/09/08 08:10:47;;;;;;;13.17;11.70;;;17.90;99.90;;;;;;6154323;23;20541;-69
2021/09/08 08:13:14;;;;;;;11.87;10.87;;;18.00;99.90;;;;;;6154255;23;20493;-67
2021/09/08 08:15:40;;;;;;;14.07;12.80;;;18.00;99.90;;;;;;6154119;23;21005;-67
2021/09/08 08:18:09;;;;;;;13.03;11.87;;;18.10;99.90;;;;;;6154349;23;20578;-67
2021/09/08 08:20:36;;;;;;;12.07;10.83;;;18.20;99.90;;;;;;6154425;23;20438;-67
2021/09/08 08:23:02;;;;;;;11.87;10.77;;;18.30;99.90;;;;;;6154492;23;20489;-68
2021/09/08 08:25:30;;;;;;;11.43;10.43;;;18.50;99.90;;;;;;6154051;23;20447;-68
2021/09/08 08:27:58;;;;;;;12.13;11.00;;;18.70;99.90;;;;;;6154660;23;20427;-68
2021/09/08 08:30:25;;;;;;;12.87;11.67;;;18.80;99.90;;;;;;6154190;23;20427;-68
2021/09/08 08:32:52;;;;;;;11.47;10.33;;;18.80;99.90;;;;;;6163567;23;20728;-67
2021/09/08 08:35:21;;;;;;;12.13;11.00;;;18.80;99.90;;;;;;6154330;23;20422;-68
2021/09/08 08:37:51;;;;;;;16.40;12.50;;;19.00;99.90;;;;;;6154069;23;20438;-68
2021/09/08 08:40:18;;;;;;;10.80;10.00;;;19.10;99.90;;;;;;6153943;23;20477;-68
2021/09/08 08:42:45;;;;;;;12.20;10.67;;;19.20;99.90;;;;;;6154067;23;20423;-68
2021/09/08 08:45:13;;;;;;;12.57;11.40;;;19.40;99.90;;;;;;6153924;23;20425;-68
2021/09/08 08:47:39;;;;;;;13.37;11.77;;;19.50;99.90;;;;;;6153904;23;21118;-68
2021/09/08 08:50:10;;;;;;;13.03;11.83;;;19.50;99.90;;;;;;6152682;23;20422;-68
2021/09/08 08:52:39;;;;;;;13.63;12.23;;;19.60;99.90;;;;;;6153558;23;20505;-68
2021/09/08 08:55:06;;;;;;;11.77;10.67;;;19.60;99.90;;;;;;6154018;23;20422;-68
2021/09/08 08:57:33;;;;;;;10.87;9.90;;;19.60;99.90;;;;;;6154328;23;20422;-68
2021/09/08 09:00:00;;;;;;;12.20;11.00;;;19.70;99.90;;;;;;6154013;23;20423;-68
2021/09/08 09:02:28;;;;;;;11.87;10.67;;;19.90;99.90;;;;;;6154286;23;20505;-68
2021/09/08 09:04:57;;;;;;;11.50;10.40;;;19.90;99.90;;;;;;6154173;23;20443;-68
2021/09/08 09:07:26;;;;;;;11.47;10.07;;;20.00;99.90;;;;;;6157004;23;20462;-68
2021/09/08 09:09:56;;;;;;;11.67;10.57;;;20.10;99.90;;;;;;6161750;23;20418;-68
2021/09/08 09:12:26;;;;;;;11.63;10.47;;;20.20;99.90;;;;;;6155330;23;20455;-67
2021/09/08 09:14:58;;;;;;;11.40;10.30;;;20.30;99.90;;;;;;6155920;23;20809;-69
2021/09/08 09:17:26;;;;;;;11.13;10.20;;;20.30;99.90;;;;;;6157154;23;20519;-69
2021/09/08 09:19:53;;;;;;;9.87;9.00;;;20.30;99.90;;;;;;6158011;23;20430;-70
2021/09/08 09:22:20;;;;;;;11.53;10.43;;;20.40;99.90;;;;;;6155659;23;20439;-69
2021/09/08 09:24:53;;;;;;;10.40;9.60;;;20.60;99.90;;;;;;6155381;23;20447;-68
2021/09/08 09:27:20;;;;;;;9.20;8.50;;;20.70;99.90;;;;;;6155752;23;20411;-68
2021/09/08 09:29:47;;;;;;;10.20;9.30;;;20.70;99.90;;;;;;6155741;23;20422;-68
2021/09/08 09:32:14;;;;;;;9.47;8.53;;;20.70;99.90;;;;;;6155708;23;20513;-68
2021/09/08 09:34:42;;;;;;;9.70;8.90;;;20.70;99.90;;;;;;6154008;23;21315;-67
2021/09/08 09:37:10;;;;;;;8.83;7.93;;;20.80;99.90;;;;;;6155318;23;20422;-68
2021/09/08 09:39:39;;;;;;;12.70;9.40;;;20.90;99.90;;;;;;6155294;23;20439;-68
2021/09/08 09:42:09;;;;;;;10.33;9.47;;;21.10;99.90;;;;;;6155413;23;20439;-67
2021/09/08 09:44:36;;;;;;;9.97;9.10;;;21.00;99.90;;;;;;6154705;23;20407;-68
2021/09/08 09:47:04;;;;;;;9.57;8.77;;;21.00;99.90;;;;;;6155764;23;20423;-69
2021/09/08 09:49:32;;;;;;;10.67;9.50;;;21.00;99.90;;;;;;6154842;23;20433;-69
2021/09/08 09:51:59;;;;;;;8.77;7.93;;;21.00;99.90;;;;;;6155063;23;20528;-69
2021/09/08 09:54:27;;;;;;;8.67;7.97;;;21.10;99.90;;;;;;6155863;23;20422;-68
2021/09/08 09:56:54;;;;;;;10.40;9.60;;;21.20;99.90;;;;;;6155819;23;20426;-68
2021/09/08 09:59:23;;;;;;;8.70;8.00;;;21.20;99.90;;;;;;6155671;23;20500;-68
2021/09/08 10:01:50;;;;;;;10.47;9.53;;;21.20;99.90;;;;;;6154795;23;20764;-69
2021/09/08 10:04:17;;;;;;;10.63;9.30;;;21.30;99.90;;;;;;6155579;23;20423;-69
2021/09/08 10:06:44;;;;;;;9.40;8.60;;;21.30;99.90;;;;;;6155211;23;20502;-69
2021/09/08 10:09:14;;;;;;;8.50;7.80;;;21.20;99.90;;;;;;6155265;23;20750;-68
2021/09/08 10:11:45;;;;;;;7.70;7.20;;;21.20;99.90;;;;;;6154722;23;21011;-67
2021/09/08 10:14:14;;;;;;;9.93;8.93;;;21.40;99.90;;;;;;6155243;23;20457;-67
2021/09/08 10:16:46;;;;;;;8.63;7.97;;;21.40;99.90;;;;;;6155898;23;20497;-68
2021/09/08 10:19:16;;;;;;;9.20;8.47;;;21.50;99.90;;;;;;6154415;23;20892;-69
2021/09/08 10:21:46;;;;;;;8.40;7.80;;;21.60;99.90;;;;;;6154918;23;20813;-69
2021/09/08 10:24:12;;;;;;;7.80;7.30;;;21.70;99.90;;;;;;6154297;23;20493;-68
2021/09/08 10:26:39;;;;;;;8.00;7.30;;;21.70;99.90;;;;;;6155186;23;20423;-68
2021/09/08 10:29:07;;;;;;;8.33;7.63;;;21.80;99.90;;;;;;6154952;23;20422;-69
2021/09/08 10:31:36;;;;;;;8.07;7.47;;;21.90;99.90;;;;;;6154480;23;20502;-69
2021/09/08 10:34:06;;;;;;;8.43;7.63;;;22.00;99.90;;;;;;6154334;23;20422;-68
2021/09/08 10:36:34;;;;;;;7.93;7.30;;;22.20;99.90;;;;;;6153839;23;20538;-68
2021/09/08 10:39:05;;;;;;;7.90;7.20;;;22.30;99.90;;;;;;6154878;23;20422;-67
2021/09/08 10:41:38;;;;;;;7.47;6.87;;;22.30;99.90;;;;;;6154879;23;20578;-66
2021/09/08 10:44:06;;;;;;;8.03;7.43;;;22.30;99.90;;;;;;6154959;23;20479;-66
2021/09/08 10:46:53;;;;;;;7.93;7.27;;;22.40;99.90;;;;;;6154784;23;20521;-66
2021/09/08 10:49:48;;;;;;;7.60;7.03;;;22.40;99.90;;;;;;6154401;23;20515;-66
2021/09/08 10:52:36;;;;;;;6.90;6.30;;;22.40;99.90;;;;;;6153814;23;20455;-67
2021/09/08 10:55:26;;;;;;;6.90;6.50;;;22.40;99.90;;;;;;6154911;23;20426;-68
2021/09/08 10:58:00;;;;;;;6.37;5.97;;;22.40;99.90;;;;;;6132901;23;20423;-68
2021/09/08 11:00:38;;;;;;;7.20;6.70;;;22.50;99.90;;;;;;6154930;23;20487;-68
2021/09/08 11:03:08;;;;;;;8.33;7.60;;;22.60;99.90;;;;;;6154242;23;20431;-68
2021/09/08 11:05:50;;;;;;;7.30;6.80;;;22.60;99.90;;;;;;6154359;23;20407;-68
2021/09/08 11:08:28;;;;;;;8.10;7.50;;;22.50;99.90;;;;;;6154721;23;20535;-67
2021/09/08 11:11:12;;;;;;;7.37;6.90;;;22.70;99.90;;;;;;6153872;23;20443;-68
2021/09/08 11:13:40;;;;;;;8.20;7.60;;;22.70;99.90;;;;;;6154574;23;20454;-67
2021/09/08 11:16:22;;;;;;;8.00;7.30;;;22.80;99.90;;;;;;6154533;23;20485;-68
2021/09/08 11:18:50;;;;;;;7.70;7.20;;;22.80;99.90;;;;;;6153943;23;20443;-68
2021/09/08 11:21:18;;;;;;;7.70;7.03;;;22.90;99.90;;;;;;6153851;23;20940;-68
2021/09/08 11:23:47;;;;;;;7.60;7.00;;;22.80;99.90;;;;;;6153989;23;20805;-68
2021/09/08 11:26:14;;;;;;;7.27;6.73;;;22.90;99.90;;;;;;6154396;23;20477;-67
2021/09/08 11:28:41;;;;;;;6.60;6.00;;;22.90;99.90;;;;;;6154600;23;20422;-68
2021/09/08 11:31:13;;;;;;;6.43;5.93;;;23.00;99.90;;;;;;6154587;23;20450;-68
2021/09/08 11:33:40;;;;;;;6.70;6.20;;;23.00;99.90;;;;;;6154035;23;20423;-68
2021/09/08 11:36:15;;;;;;;7.80;7.27;;;23.00;99.90;;;;;;6153734;23;20423;-68
2021/09/08 11:38:46;;;;;;;7.40;7.00;;;23.20;99.90;;;;;;6154520;23;20429;-68
2021/09/08 11:41:14;;;;;;;6.00;5.70;;;23.20;99.90;;;;;;6154216;23;20573;-67
2021/09/08 11:43:43;;;;;;;7.03;6.50;;;23.20;99.90;;;;;;6154051;23;20423;-68
2021/09/08 11:46:11;;;;;;;6.50;6.10;;;23.20;99.90;;;;;;6154326;23;20470;-69
2021/09/08 11:48:38;;;;;;;6.73;6.33;;;23.10;99.90;;;;;;6153452;23;20430;-69
2021/09/08 11:51:06;;;;;;;6.57;5.90;;;23.10;99.90;;;;;;6153427;23;20462;-68
2021/09/08 11:53:33;;;;;;;6.50;6.00;;;23.20;99.90;;;;;;6154093;23;20439;-69
2021/09/08 11:56:12;;;;;;;6.80;6.30;;;23.20;99.90;;;;;;6153286;23;20901;-69
2021/09/08 11:58:40;;;;;;;6.67;5.80;;;23.40;99.90;;;;;;6154161;23;20490;-68
2021/09/08 12:01:09;;;;;;;7.97;7.37;;;23.50;99.90;;;;;;6153423;23;21021;-69
2021/09/08 12:03:40;;;;;;;5.73;5.43;;;23.50;99.90;;;;;;6152670;23;20419;-69
2021/09/08 12:06:12;;;;;;;7.30;6.80;;;23.50;99.90;;;;;;6154291;23;20422;-69
2021/09/08 12:08:48;;;;;;;7.47;6.77;;;23.60;99.90;;;;;;6154701;23;20411;-69
2021/09/08 12:14:34;;;;;;;7.13;6.50;;;23.50;99.90;;;;;;5088285;27;20549;-67
2021/09/08 12:17:05;;;;;;;5.87;5.37;;;23.50;99.90;;;;;;5045502;28;20462;-67
2021/09/08 12:19:33;;;;;;;5.90;5.50;;;23.60;99.90;;;;;;5062818;28;20513;-67
2021/09/08 12:22:05;;;;;;;5.73;5.33;;;23.60;99.90;;;;;;5068648;28;20475;-68
2021/09/08 12:24:33;;;;;;;5.47;5.27;;;23.50;99.90;;;;;;5069001;28;20540;-67
2021/09/08 12:27:00;;;;;;;5.23;4.93;;;23.50;99.90;;;;;;5069025;28;20463;-67
2021/09/08 12:29:28;;;;;;;5.87;5.57;;;23.50;99.90;;;;;;5068191;28;20451;-67
2021/09/08 12:31:58;;;;;;;7.90;5.93;;;23.50;99.90;;;;;;5065441;28;20484;-68
2021/09/08 12:34:42;;;;;;;5.83;5.50;;;23.50;99.90;;;;;;5066597;28;20475;-69
2021/09/08 12:37:09;;;;;;;6.30;5.80;;;23.60;99.90;;;;;;5068851;28;20455;-67
2021/09/08 12:39:42;;;;;;;5.97;5.60;;;23.70;99.90;;;;;;5069010;28;20534;-67
2021/09/08 12:42:17;;;;;;;5.93;5.43;;;23.70;99.90;;;;;;5069364;28;20483;-67
2021/09/08 12:44:46;;;;;;;7.07;6.53;;;23.90;99.90;;;;;;5068874;28;20591;-67
2021/09/08 12:47:14;;;;;;;8.20;6.20;;;23.90;99.90;;;;;;5068557;28;20451;-67
2021/09/08 12:49:42;;;;;;;6.90;6.40;;;23.90;99.90;;;;;;5065708;28;20537;-67
2021/09/08 12:52:10;;;;;;;6.17;5.67;;;23.80;99.90;;;;;;5067328;28;21003;-68
2021/09/08 12:54:37;;;;;;;6.30;5.90;;;23.80;99.90;;;;;;5067252;28;20854;-67
2021/09/08 12:57:06;;;;;;;7.50;6.07;;;23.70;99.90;;;;;;5068436;28;20524;-67
2021/09/08 12:59:34;;;;;;;6.03;5.60;;;23.70;99.90;;;;;;5067791;28;20454;-69
2021/09/08 13:02:04;;;;;;;5.93;5.30;;;23.80;99.90;;;;;;5065124;28;20515;-68
2021/09/08 13:04:31;;;;;;;6.60;5.53;;;23.80;99.90;;;;;;5067538;28;20472;-67
2021/09/08 13:06:59;;;;;;;5.43;5.03;;;23.90;99.90;;;;;;5068093;28;20605;-67
2021/09/08 13:09:28;;;;;;;5.93;5.30;;;23.90;99.90;;;;;;5068023;28;20459;-67
2021/09/08 13:11:55;;;;;;;5.33;5.03;;;24.00;99.90;;;;;;5068131;28;20968;-67
2021/09/08 13:14:22;;;;;;;4.73;4.53;;;24.10;99.90;;;;;;5068586;28;20455;-68
2021/09/08 13:16:48;;;;;;;5.03;4.73;;;24.20;99.90;;;;;;5053087;28;20477;-67
2021/09/08 13:19:17;;;;;;;5.00;4.70;;;24.20;99.90;;;;;;5046887;28;20826;-69
2021/09/08 13:21:44;;;;;;;5.00;4.70;;;24.10;99.90;;;;;;5053572;28;20506;-69
2021/09/08 13:24:13;;;;;;;4.63;4.33;;;24.10;99.90;;;;;;5060850;28;20459;-67
2021/09/08 13:26:41;;;;;;;4.90;4.67;;;24.10;99.90;;;;;;5054881;28;20460;-68
2021/09/08 13:29:09;;;;;;;4.70;4.40;;;23.90;99.90;;;;;;5054673;28;20464;-69
2021/09/08 13:31:36;;;;;;;4.70;4.43;;;24.00;99.90;;;;;;5054769;28;20476;-68
2021/09/08 13:34:04;;;;;;;5.10;4.90;;;24.10;99.90;;;;;;5054373;28;20495;-68
2021/09/08 13:36:34;;;;;;;4.73;4.53;;;24.10;99.90;;;;;;5054413;28;20824;-68
2021/09/08 13:39:03;;;;;;;5.13;4.83;;;24.20;99.90;;;;;;5054413;28;20452;-68
2021/09/08 13:41:31;;;;;;;4.90;4.60;;;24.20;99.90;;;;;;5053968;28;20488;-68
2021/09/08 13:43:58;;;;;;;4.73;4.43;;;24.20;99.90;;;;;;5054078;28;20827;-68
2021/09/08 13:46:24;;;;;;;4.70;4.40;;;24.20;99.90;;;;;;5053960;28;20478;-68
2021/09/08 13:48:52;;;;;;;5.00;4.70;;;24.20;99.90;;;;;;5053777;28;20546;-68
2021/09/08 13:51:19;;;;;;;5.20;4.90;;;24.20;99.90;;;;;;5053898;28;20480;-68
2021/09/08 13:53:47;;;;;;;4.43;4.20;;;24.30;99.90;;;;;;5045510;28;20836;-68
2021/09/08 13:56:15;;;;;;;4.33;4.13;;;24.30;99.90;;;;;;5052109;28;20518;-68
2021/09/08 13:58:42;;;;;;;4.40;4.10;;;24.30;99.90;;;;;;5054285;28;20464;-68
2021/09/08 14:01:08;;;;;;;5.07;4.77;;;24.30;99.90;;;;;;5053756;28;20578;-68
2021/09/08 14:03:35;;;;;;;4.93;4.53;;;24.40;99.90;;;;;;5053568;28;20459;-68
2021/09/08 14:06:02;;;;;;;4.60;4.30;;;24.40;99.90;;;;;;5053822;28;20472;-68
2021/09/08 14:08:29;;;;;;;4.87;4.47;;;24.40;99.90;;;;;;5054550;28;20459;-68
2021/09/08 14:10:57;;;;;;;5.30;4.80;;;24.40;99.90;;;;;;5053293;28;20965;-69
2021/09/08 14:13:23;;;;;;;5.20;4.90;;;24.40;99.90;;;;;;5053997;28;20501;-69
2021/09/08 14:15:50;;;;;;;5.07;4.67;;;24.40;99.90;;;;;;5053866;28;20459;-69
2021/09/08 14:18:17;;;;;;;4.73;4.33;;;24.50;99.90;;;;;;5053743;28;20464;-69
2021/09/08 14:20:43;;;;;;;4.30;4.00;;;24.60;99.90;;;;;;5054166;28;20483;-68
2021/09/08 14:23:10;;;;;;;4.93;4.70;;;24.50;99.90;;;;;;5053409;28;20825;-68
2021/09/08 14:25:37;;;;;;;5.63;5.27;;;24.50;99.90;;;;;;5053964;28;20491;-69
2021/09/08 14:28:06;;;;;;;5.47;5.10;;;24.40;99.90;;;;;;5053548;28;20499;-69
2021/09/08 14:30:33;;;;;;;5.60;5.30;;;24.40;99.90;;;;;;5053240;28;20476;-69
2021/09/08 14:33:00;;;;;;;5.90;5.47;;;24.40;99.90;;;;;;5052709;28;20476;-69
2021/09/08 14:35:27;;;;;;;5.93;5.40;;;24.30;99.90;;;;;;5052656;28;20964;-69
2021/09/08 14:37:53;;;;;;;5.03;4.67;;;24.30;99.90;;;;;;5052980;28;20498;-69
2021/09/08 14:40:20;;;;;;;5.77;5.20;;;24.20;99.90;;;;;;5053324;28;20546;-69
2021/09/08 14:42:47;;;;;;;5.53;5.13;;;24.20;99.90;;;;;;5047460;28;20461;-69
2021/09/08 14:45:16;;;;;;;6.10;5.67;;;24.30;99.90;;;;;;5049062;28;20571;-66
2021/09/08 14:47:43;;;;;;;5.43;5.13;;;24.30;99.90;;;;;;5053082;28;20517;-67
2021/09/08 14:50:11;;;;;;;5.43;5.10;;;24.30;99.90;;;;;;5052571;28;20471;-67
2021/09/08 14:52:37;;;;;;;5.50;5.10;;;24.40;99.90;;;;;;5052514;28;20867;-67
2021/09/08 14:55:05;;;;;;;6.10;5.70;;;24.40;99.90;;;;;;5053050;28;20460;-66
2021/09/08 14:57:31;;;;;;;6.60;6.17;;;24.40;99.90;;;;;;5052203;28;20506;-69
2021/09/08 14:59:58;;;;;;;5.80;5.50;;;24.30;99.90;;;;;;5052150;28;20483;-68
2021/09/08 15:02:26;;;;;;;5.43;5.03;;;24.30;99.90;;;;;;5051068;28;20484;-68
2021/09/08 15:04:53;;;;;;;5.77;5.37;;;24.30;99.90;;;;;;5052201;28;20510;-68
2021/09/08 15:07:19;;;;;;;5.27;4.87;;;24.20;99.90;;;;;;5052554;28;20602;-67
2021/09/08 15:09:46;;;;;;;6.07;5.53;;;24.20;99.90;;;;;;5052217;28;20460;-67
2021/09/08 15:12:13;;;;;;;6.03;5.73;;;24.30;99.90;;;;;;5051869;28;21060;-67
2021/09/08 15:14:41;;;;;;;6.83;6.43;;;24.30;99.90;;;;;;5051490;28;20476;-67
2021/09/08 15:17:08;;;;;;;6.00;5.60;;;24.30;99.90;;;;;;5052182;28;20456;-68
2021/09/08 15:19:36;;;;;;;5.00;4.70;;;24.30;99.90;;;;;;5051460;28;20518;-68
2021/09/08 15:22:03;;;;;;;5.43;5.03;;;24.30;99.90;;;;;;5046012;28;20990;-67
2021/09/08 15:24:30;;;;;;;6.67;4.80;;;24.20;99.90;;;;;;5051721;28;20968;-67
2021/09/08 15:26:57;;;;;;;5.27;4.97;;;24.20;99.90;;;;;;5052727;28;20496;-67
2021/09/08 15:29:23;;;;;;;5.00;4.80;;;24.20;99.90;;;;;;5043279;28;20473;-67
2021/09/08 15:31:50;;;;;;;6.20;5.60;;;24.20;99.90;;;;;;5053315;28;20484;-68
2021/09/08 15:34:17;;;;;;;4.90;4.70;;;24.20;99.90;;;;;;5052527;28;20484;-68
2021/09/08 15:36:45;;;;;;;5.40;4.90;;;24.10;99.90;;;;;;5052089;28;20962;-68
2021/09/08 15:39:12;;;;;;;5.27;4.97;;;24.10;99.90;;;;;;5068498;28;20505;-68
2021/09/08 15:41:38;;;;;;;4.60;4.30;;;24.10;99.90;;;;;;5060642;28;20476;-68
2021/09/08 15:44:05;;;;;;;4.57;4.37;;;24.10;99.90;;;;;;5066478;28;20524;-68
2021/09/08 15:46:32;;;;;;;5.73;5.47;;;24.10;99.90;;;;;;5054284;28;20476;-68
2021/09/08 15:48:59;;;;;;;5.87;5.37;;;24.10;99.90;;;;;;5048956;28;20471;-67
2021/09/08 15:51:26;;;;;;;5.57;5.27;;;24.10;99.90;;;;;;5052048;28;20626;-67
2021/09/08 15:53:54;;;;;;;5.07;4.77;;;24.00;99.90;;;;;;5051313;28;20494;-66
2021/09/08 15:56:21;;;;;;;5.03;4.63;;;24.00;99.90;;;;;;5063207;28;20516;-67
2021/09/08 15:58:48;;;;;;;5.67;5.33;;;24.00;99.90;;;;;;5063836;28;20464;-68
2021/09/08 16:01:15;;;;;;;5.50;5.20;;;24.10;99.90;;;;;;5069704;28;20475;-68
2021/09/08 16:03:42;;;;;;;21.63;6.43;;;24.10;99.90;;;;;;5042335;28;20553;-67
2021/09/08 16:06:09;;;;;;;4.80;4.50;;;24.10;99.90;;;;;;5050367;28;20490;-67
2021/09/08 16:08:36;;;;;;;5.80;5.40;;;24.00;99.90;;;;;;5064380;28;20538;-67
2021/09/08 16:11:04;;;;;;;5.00;4.70;;;24.00;99.90;;;;;;5053670;28;20484;-68
2021/09/08 16:13:33;;;;;;;5.33;5.00;;;23.90;99.90;;;;;;5050858;28;20534;-67
2021/09/08 16:16:01;;;;;;;5.33;4.90;;;24.00;99.90;;;;;;5051647;28;20495;-67
2021/09/08 16:18:27;;;;;;;5.60;5.30;;;24.00;99.90;;;;;;5063662;28;20522;-68
2021/09/08 16:20:55;;;;;;;5.33;5.03;;;23.90;99.90;;;;;;5046970;28;20914;-67
2021/09/08 16:23:22;;;;;;;5.90;5.23;;;23.90;99.90;;;;;;5049442;28;20459;-67
2021/09/08 16:25:49;;;;;;;5.40;5.00;;;23.90;99.90;;;;;;5036016;28;20465;-67
2021/09/08 16:28:17;;;;;;;5.90;5.50;;;23.80;99.90;;;;;;5071162;28;20459;-68
2021/09/08 16:30:43;;;;;;;5.50;5.10;;;23.80;99.90;;;;;;5053093;28;20484;-68
2021/09/08 16:33:10;;;;;;;6.00;5.60;;;23.70;99.90;;;;;;5068105;28;20974;-68
2021/09/08 16:35:37;;;;;;;5.57;5.27;;;23.70;99.90;;;;;;5059191;28;20542;-68
2021/09/08 16:38:03;;;;;;;5.83;5.43;;;23.70;99.90;;;;;;5051101;28;20475;-68
2021/09/08 16:40:30;;;;;;;4.90;4.50;;;23.60;99.90;;;;;;5050318;28;20488;-68
2021/09/08 16:42:57;;;;;;;5.40;4.90;;;23.60;99.90;;;;;;5052933;28;20464;-68
2021/09/08 16:45:26;;;;;;;4.90;4.60;;;23.60;99.90;;;;;;5061757;28;20459;-68